Maidsville, West Virginia
Current Conditions -  °F | °C
As of 4:53 PM on Saturday 25 Oct 2014 (Local Time) from KMGW Reporting Station
Broken Clouds Broken Clouds  
Wind Chill: 67°   Ceiling: 4300
Heat Index: 67°   Visibility: 10mi
Dew Point: 45°   Wind: 13mph
Humidity: 45%   Direction: 220°SW
Pressure: 29.83"   Gusts: 23mph
Location:  39.69°N, 79.98°W
Report Text: KMGW 252053Z 22011G20KT 10SM BKN043 19/07 A2983 RMK AO2 SLP098 T01940072 56029
Loading
Personal Weather Stations






























Interactive Weather Map
Tropical Storm Tracking
New forecast layout! Learn more

10-Day Weather Forecast

Advertisements
Track Severe Weather on mobile